Time;durP1;ratioP1;P1;durP2;ratioP2;P2;SDS_P1;SDS_P2;PMS_P1;PMS_P2;Temp;Humidity;BMP_temperature;BMP_pressure;BME280_temperature;BME280_humidity;BME280_pressure;Samples;Min_cycle;Max_cycle;Signal;HPM_P1;HPM_P2
2024/03/10 00:01:22;;;;;;;36.10;22.70;;;;;;;7.53;100.00;99408.20;181800;1236;46157;-82
2024/03/10 00:05:24;;;;;;;37.00;24.50;;;;;;;7.62;100.00;99404.90;182063;1238;46399;-82
2024/03/10 00:09:26;;;;;;;43.70;27.60;;;;;;;7.70;100.00;99406.80;181783;1239;46067;-81
2024/03/10 00:13:28;;;;;;;32.40;22.20;;;;;;;7.78;100.00;99400.89;181655;1236;59082;-81
2024/03/10 00:17:30;;;;;;;39.60;23.00;;;;;;;7.85;100.00;99397.49;181338;1238;46203;-81
2024/03/10 00:21:33;;;;;;;37.40;23.40;;;;;;;7.94;100.00;99392.00;180987;1241;46169;-81
2024/03/10 00:25:35;;;;;;;42.30;27.60;;;;;;;8.04;100.00;99389.13;181225;1238;46019;-82
2024/03/10 00:29:40;;;;;;;36.70;24.70;;;;;;;8.18;100.00;99384.62;180401;1241;46006;-81
2024/03/10 00:33:44;;;;;;;35.70;22.60;;;;;;;8.26;100.00;99381.86;181150;1236;59782;-81
2024/03/10 00:37:46;;;;;;;36.20;23.40;;;;;;;8.34;100.00;99378.66;180779;1236;46083;-82
2024/03/10 00:41:47;;;;;;;31.40;22.50;;;;;;;8.37;100.00;99371.54;181480;1236;46113;-81
2024/03/10 00:45:52;;;;;;;36.10;23.20;;;;;;;8.42;99.91;99368.26;181741;1238;46245;-81
2024/03/10 00:49:53;;;;;;;36.30;25.40;;;;;;;8.47;99.49;99361.70;182704;1236;46280;-82
2024/03/10 00:53:55;;;;;;;36.70;24.40;;;;;;;8.48;99.10;99357.83;181459;1240;58181;-81
2024/03/10 00:57:57;;;;;;;38.00;21.80;;;;;;;8.50;98.94;99355.52;181834;1240;46002;-81
2024/03/10 01:01:59;;;;;;;35.60;23.30;;;;;;;8.54;98.72;99356.30;182082;1236;46006;-82
2024/03/10 01:06:02;;;;;;;27.60;21.60;;;;;;;8.53;98.62;99349.49;181657;1238;45960;-82
2024/03/10 01:10:05;;;;;;;30.70;22.00;;;;;;;8.53;98.51;99341.20;182048;1236;46195;-81
2024/03/10 01:14:07;;;;;;;32.20;21.80;;;;;;;8.51;98.52;99336.57;180517;1241;59397;-81
2024/03/10 01:18:09;;;;;;;35.40;23.60;;;;;;;8.51;98.59;99333.80;180509;1240;46094;-82
2024/03/10 01:22:16;;;;;;;37.30;24.80;;;;;;;8.52;98.87;99326.47;181923;1240;46106;-81
2024/03/10 01:26:18;;;;;;;36.60;24.30;;;;;;;8.51;98.88;99326.48;182046;1240;46010;-82
2024/03/10 01:30:20;;;;;;;35.20;22.90;;;;;;;8.55;98.96;99325.25;181435;1237;45943;-82
2024/03/10 01:34:22;;;;;;;33.30;22.20;;;;;;;8.55;99.26;99318.35;182038;1240;57940;-82
2024/03/10 01:38:24;;;;;;;31.90;22.40;;;;;;;8.53;99.50;99317.83;182030;1238;46197;-82
2024/03/10 01:42:26;;;;;;;30.50;22.90;;;;;;;8.54;99.82;99316.15;180711;1240;45977;-81
2024/03/10 01:46:29;;;;;;;31.30;21.80;;;;;;;8.50;99.91;99315.14;180824;1236;46097;-81
2024/03/10 01:50:31;;;;;;;34.60;21.60;;;;;;;8.52;100.00;99317.79;181823;1236;46058;-81
2024/03/10 01:54:35;;;;;;;28.60;20.10;;;;;;;8.51;100.00;99309.92;180537;1240;57278;-82
2024/03/10 01:58:38;;;;;;;35.70;22.20;;;;;;;8.51;100.00;99303.33;181671;1240;46128;-81
2024/03/10 02:02:43;;;;;;;35.60;22.40;;;;;;;8.52;100.00;99302.41;180715;1238;45969;-81
2024/03/10 02:06:45;;;;;;;33.50;24.40;;;;;;;8.54;100.00;99300.86;181565;1238;46843;-81
2024/03/10 02:10:48;;;;;;;30.50;20.10;;;;;;;8.54;100.00;99302.04;181168;1237;46159;-81
2024/03/10 02:14:57;;;;;;;30.90;19.30;;;;;;;8.54;100.00;99295.70;181447;1236;58175;-82
2024/03/10 02:18:59;;;;;;;30.50;23.10;;;;;;;8.53;100.00;99294.50;180960;1239;45977;-81
2024/03/10 02:23:01;;;;;;;29.50;20.30;;;;;;;8.53;100.00;99286.21;182031;1238;46108;-81
2024/03/10 02:27:03;;;;;;;30.20;21.80;;;;;;;8.55;100.00;99287.28;181820;1239;45912;-81
2024/03/10 02:47:12;;;;;;;34.60;21.00;;;;;;;8.58;100.00;99281.20;181740;1238;57135;-82
2024/03/10 02:48:34;;;;;;;27.40;20.60;;;;;;;8.62;100.00;99268.70;181885;1240;46175;-81
2024/03/10 02:52:36;;;;;;;30.90;22.70;;;;;;;8.65;100.00;99266.10;181631;1238;44630;-81
2024/03/10 02:56:37;;;;;;;32.40;21.90;;;;;;;8.65;100.00;99263.59;181690;1237;57426;-81
2024/03/10 03:00:39;;;;;;;24.20;20.90;;;;;;;8.62;100.00;99257.34;181601;1237;46364;-82
2024/03/10 03:04:41;;;;;;;37.30;24.60;;;;;;;8.63;100.00;99256.33;181760;1236;46121;-82
2024/03/10 03:08:43;;;;;;;28.70;21.20;;;;;;;8.62;100.00;99254.88;181858;1241;46103;-83
2024/03/10 03:12:46;;;;;;;34.20;22.40;;;;;;;8.62;100.00;99251.00;181271;1240;46108;-83
2024/03/10 03:16:48;;;;;;;33.00;21.60;;;;;;;8.64;100.00;99242.16;181893;1240;58216;-82
2024/03/10 03:20:49;;;;;;;29.90;23.00;;;;;;;8.64;100.00;99244.64;181602;1237;46003;-82
2024/03/10 03:24:51;;;;;;;27.60;19.90;;;;;;;8.63;100.00;99247.15;181754;1237;46017;-82
2024/03/10 03:28:53;;;;;;;33.00;22.30;;;;;;;8.65;100.00;99248.03;181465;1237;46054;-82
2024/03/10 03:32:55;;;;;;;36.50;23.60;;;;;;;8.66;100.00;99245.31;181807;1240;45875;-82
2024/03/10 03:36:57;;;;;;;29.70;20.70;;;;;;;8.66;100.00;99246.33;181742;1241;59756;-82
2024/03/10 03:40:59;;;;;;;30.70;21.00;;;;;;;8.66;100.00;99245.46;181628;1240;46048;-82
2024/03/10 03:45:04;;;;;;;29.80;21.80;;;;;;;8.68;100.00;99244.09;181741;1236;47065;-82
2024/03/10 03:49:06;;;;;;;25.80;20.30;;;;;;;8.69;99.89;99237.09;181739;1240;46099;-81
2024/03/10 03:53:08;;;;;;;31.90;21.80;;;;;;;8.70;99.97;99235.19;181985;1240;46253;-82
2024/03/10 03:57:10;;;;;;;33.20;21.30;;;;;;;8.68;99.88;99235.75;182293;1240;57996;-83
2024/03/10 04:01:12;;;;;;;23.20;18.60;;;;;;;8.68;99.99;99229.19;182158;1236;45950;-81
2024/03/10 04:05:14;;;;;;;28.30;20.80;;;;;;;8.67;100.00;99229.52;181595;1237;45975;-82
2024/03/10 04:09:16;;;;;;;31.20;20.00;;;;;;;8.61;100.00;99228.61;181728;1236;46163;-82
2024/03/10 04:13:19;;;;;;;27.90;20.40;;;;;;;8.54;100.00;99223.91;181854;1236;46042;-82
2024/03/10 04:17:22;;;;;;;33.30;19.30;;;;;;;8.49;100.00;99219.61;181661;1238;59293;-83
2024/03/10 04:21:23;;;;;;;26.30;19.40;;;;;;;8.47;100.00;99222.20;181624;1242;46037;-82
2024/03/10 04:25:25;;;;;;;27.00;20.40;;;;;;;8.49;100.00;99222.82;181678;1236;46084;-81
2024/03/10 04:29:27;;;;;;;33.90;22.30;;;;;;;8.46;100.00;99220.25;181719;1240;46098;-81
2024/03/10 04:33:29;;;;;;;33.90;22.50;;;;;;;8.44;100.00;99220.89;180599;1240;46041;-81
2024/03/10 04:37:31;;;;;;;35.40;22.70;;;;;;;8.44;100.00;99216.45;180252;1240;58100;-81
2024/03/10 04:41:33;;;;;;;33.70;21.60;;;;;;;8.48;100.00;99214.03;181217;1241;46026;-80
2024/03/10 04:45:35;;;;;;;27.40;20.50;;;;;;;8.50;100.00;99212.15;181990;1238;46048;-82
2024/03/10 04:49:39;;;;;;;31.10;21.70;;;;;;;8.50;99.61;99208.94;181946;1237;46512;-82
2024/03/10 04:53:43;;;;;;;31.20;20.40;;;;;;;8.50;99.08;99212.82;182112;1237;45984;-82
2024/03/10 04:57:45;;;;;;;26.80;21.20;;;;;;;8.51;98.69;99211.65;180809;1237;59492;-82
2024/03/10 05:01:47;;;;;;;28.00;20.30;;;;;;;8.52;98.70;99215.65;181165;1237;46070;-81
2024/03/10 05:05:49;;;;;;;38.90;23.50;;;;;;;8.54;98.77;99215.09;182198;1239;46204;-81
2024/03/10 05:09:51;;;;;;;33.60;22.90;;;;;;;8.52;98.43;99209.62;181760;1239;46066;-80
2024/03/10 05:13:52;;;;;;;30.80;21.70;;;;;;;8.52;98.58;99208.54;181930;1241;46353;-82
2024/03/10 05:17:54;;;;;;;29.30;22.30;;;;;;;8.53;99.13;99209.92;180400;1242;59200;-81
2024/03/10 05:21:56;;;;;;;34.60;23.10;;;;;;;8.54;99.00;99207.31;180597;1240;46437;-81
2024/03/10 05:25:59;;;;;;;37.40;23.60;;;;;;;8.54;99.16;99210.88;181093;1242;45990;-82
2024/03/10 05:30:02;;;;;;;29.40;21.50;;;;;;;8.55;99.54;99209.34;180656;1241;46217;-81
2024/03/10 05:34:05;;;;;;;33.40;23.70;;;;;;;8.56;99.71;99211.58;182322;1236;45912;-82
2024/03/10 05:38:06;;;;;;;38.00;22.30;;;;;;;8.55;100.00;99205.69;181939;1238;59260;-81
2024/03/10 05:42:08;;;;;;;35.00;23.90;;;;;;;8.53;100.00;99204.41;181946;1240;46151;-81
2024/03/10 05:46:12;;;;;;;36.00;22.30;;;;;;;8.56;99.99;99203.30;181159;1237;46096;-81
2024/03/10 05:50:15;;;;;;;28.20;19.10;;;;;;;8.59;99.96;99202.41;180788;1241;46092;-80
2024/03/10 05:54:17;;;;;;;28.50;20.00;;;;;;;8.61;99.97;99205.85;181791;1237;45982;-80
2024/03/10 05:58:19;;;;;;;34.40;22.80;;;;;;;8.61;99.97;99206.69;182036;1237;58022;-82
2024/03/10 06:02:21;;;;;;;31.80;22.10;;;;;;;8.64;99.98;99203.78;182074;1240;46109;-82
2024/03/10 06:06:23;;;;;;;26.70;20.20;;;;;;;8.63;99.95;99204.55;181662;1236;46272;-82
2024/03/10 06:10:26;;;;;;;32.20;21.90;;;;;;;8.63;99.79;99197.80;181650;1240;46082;-82
2024/03/10 06:14:30;;;;;;;27.90;19.50;;;;;;;8.65;99.48;99203.35;181623;1240;45994;-82
2024/03/10 06:27:15;;;;;;;24.60;18.10;;;;;;;8.73;98.01;99189.22;181762;1237;46014;-82
2024/03/10 06:31:18;;;;;;;26.10;19.20;;;;;;;8.77;97.45;99199.96;181767;1241;46727;-81
2024/03/10 06:35:20;;;;;;;28.10;21.10;;;;;;;8.78;96.22;99202.33;182181;1241;45971;-82
2024/03/10 06:39:23;;;;;;;30.30;16.70;;;;;;;8.83;96.28;99199.43;181626;1240;58121;-82
2024/03/10 06:43:25;;;;;;;29.60;20.90;;;;;;;8.87;95.50;99197.13;181670;1237;46217;-82
2024/03/10 06:47:26;;;;;;;26.60;19.00;;;;;;;8.91;95.26;99200.79;182120;1240;46096;-84
2024/03/10 06:51:29;;;;;;;24.60;16.80;;;;;;;8.94;94.93;99203.33;182263;1241;46030;-81
2024/03/10 06:55:31;;;;;;;26.30;19.40;;;;;;;8.95;94.11;99201.89;181899;1238;45976;-81
2024/03/10 06:59:34;;;;;;;27.00;16.00;;;;;;;9.00;93.82;99204.90;182229;1240;58247;-82
2024/03/10 07:03:36;;;;;;;24.20;17.30;;;;;;;9.04;93.34;99202.83;181753;1239;46077;-82
2024/03/10 07:07:38;;;;;;;22.30;16.10;;;;;;;9.11;93.17;99196.16;181834;1237;46243;-81
2024/03/10 07:11:40;;;;;;;28.10;19.00;;;;;;;9.15;93.13;99193.32;181893;1237;46083;-82
2024/03/10 07:15:42;;;;;;;22.20;16.10;;;;;;;9.23;92.59;99191.70;181777;1240;46163;-82
2024/03/10 07:19:44;;;;;;;23.30;17.00;;;;;;;9.23;92.42;99194.63;181891;1238;58169;-82
2024/03/10 07:23:46;;;;;;;27.40;18.90;;;;;;;9.26;91.42;99189.65;181724;1237;45957;-82
2024/03/10 07:27:48;;;;;;;19.30;15.30;;;;;;;9.30;91.06;99190.31;181952;1240;46160;-82
2024/03/10 07:31:50;;;;;;;29.30;20.20;;;;;;;9.34;91.58;99185.52;181706;1240;46041;-82
2024/03/10 07:35:52;;;;;;;25.80;17.40;;;;;;;9.34;91.24;99186.74;181613;1238;46050;-81
2024/03/10 07:39:54;;;;;;;26.00;18.30;;;;;;;9.36;91.30;99181.77;181711;1238;57982;-82
2024/03/10 07:43:55;;;;;;;27.90;17.70;;;;;;;9.38;91.24;99179.80;182103;1240;46374;-82
2024/03/10 07:47:58;;;;;;;22.90;17.30;;;;;;;9.40;90.82;99173.08;181547;1239;46651;-82
2024/03/10 07:52:00;;;;;;;23.60;18.30;;;;;;;9.45;91.29;99164.00;182160;1237;45958;-82
2024/03/10 07:56:01;;;;;;;25.40;19.30;;;;;;;9.47;90.89;99156.67;182109;1240;46049;-82
2024/03/10 08:00:05;;;;;;;21.50;16.80;;;;;;;9.60;91.28;99161.16;181665;1238;59419;-82
2024/03/10 08:04:07;;;;;;;19.50;15.30;;;;;;;9.66;89.62;99164.62;182095;1238;46229;-82
2024/03/10 08:08:09;;;;;;;28.30;19.70;;;;;;;9.75;89.36;99171.92;182097;1238;44426;-82
2024/03/10 08:12:11;;;;;;;23.60;17.10;;;;;;;9.81;89.31;99175.44;182394;1237;46113;-81
2024/03/10 08:16:13;;;;;;;19.50;15.30;;;;;;;9.82;88.94;99163.77;182846;1240;44591;-81
2024/03/10 08:20:15;;;;;;;28.50;17.70;;;;;;;9.87;88.99;99157.89;182307;1240;58644;-80
2024/03/10 08:24:18;;;;;;;21.20;15.40;;;;;;;9.91;88.58;99154.15;181793;1242;46028;-81
2024/03/10 08:28:20;;;;;;;24.70;15.90;;;;;;;9.93;89.42;99158.66;182309;1238;45958;-81
2024/03/10 08:32:23;;;;;;;29.10;16.40;;;;;;;9.97;89.14;99149.63;182888;1238;46048;-81
2024/03/10 08:36:25;;;;;;;22.40;15.70;;;;;;;10.02;88.61;99148.95;181745;1241;46083;-81
2024/03/10 08:40:26;;;;;;;19.50;13.10;;;;;;;10.09;88.07;99144.79;182330;1240;57977;-80
2024/03/10 08:44:28;;;;;;;17.60;12.90;;;;;;;9.98;88.39;99146.48;182020;1241;45983;-81
2024/03/10 08:48:30;;;;;;;21.90;15.30;;;;;;;10.04;87.76;99141.39;181153;1237;46080;-81
2024/03/10 08:52:32;;;;;;;19.40;14.80;;;;;;;10.09;86.81;99143.37;181245;1236;45990;-81
2024/03/10 08:56:38;;;;;;;18.80;15.40;;;;;;;10.15;86.08;99142.56;181318;1238;45970;-81
2024/03/10 09:00:40;;;;;;;;;;;;;;;10.21;86.45;99152.81;182465;1241;59462;-81
2024/03/10 09:04:42;;;;;;;18.50;14.20;;;;;;;10.23;87.40;99151.69;181920;1240;45773;-81
2024/03/10 09:08:43;;;;;;;24.40;15.50;;;;;;;10.20;87.96;99157.27;181498;1238;46608;-81
2024/03/10 09:12:46;;;;;;;20.70;14.50;;;;;;;10.26;88.01;99148.25;181986;1237;46356;-82
2024/03/10 09:16:50;;;;;;;17.20;12.40;;;;;;;10.25;88.58;99155.02;182669;1238;45916;-82
2024/03/10 09:20:52;;;;;;;17.50;13.80;;;;;;;10.35;87.67;99158.30;183325;1240;56902;-81
2024/03/10 09:24:54;;;;;;;17.30;12.60;;;;;;;10.42;86.97;99156.03;182853;1238;46050;-82
2024/03/10 09:28:57;;;;;;;17.90;12.50;;;;;;;10.50;87.99;99157.61;182732;1240;45938;-81
2024/03/10 09:32:59;;;;;;;17.90;13.80;;;;;;;10.59;87.67;99150.52;182656;1238;45935;-81
2024/03/10 09:37:01;;;;;;;19.50;14.10;;;;;;;10.67;86.95;99149.36;182788;1240;46094;-82
2024/03/10 09:41:05;;;;;;;17.50;13.30;;;;;;;10.80;87.25;99145.27;183938;1237;59207;-81
2024/03/10 09:45:15;;;;;;;20.10;14.00;;;;;;;10.93;86.87;99141.09;182225;1238;45887;-81
2024/03/10 09:49:19;;;;;;;17.90;12.20;;;;;;;11.07;87.39;99138.97;182668;1237;44760;-81
2024/03/10 09:53:23;;;;;;;18.30;12.70;;;;;;;11.23;85.33;99137.31;181687;1238;46121;-81
2024/03/10 09:57:25;;;;;;;18.10;13.80;;;;;;;11.44;84.62;99124.20;182275;1238;46101;-82
2024/03/10 10:01:29;;;;;;;19.70;14.10;;;;;;;11.58;83.14;99124.13;182131;1238;57953;-81
2024/03/10 10:05:38;;;;;;;20.90;14.70;;;;;;;11.70;82.79;99122.10;182065;1239;46004;-81
2024/03/10 10:09:40;;;;;;;22.00;14.00;;;;;;;11.71;81.40;99119.87;182035;1237;46110;-81
2024/03/10 10:13:42;;;;;;;18.90;13.50;;;;;;;11.73;80.07;99113.22;182028;1238;46107;-81
2024/03/10 10:17:54;;;;;;;21.70;15.10;;;;;;;11.75;80.06;99110.30;182217;1238;45970;-81
2024/03/10 10:21:58;;;;;;;19.10;13.70;;;;;;;11.75;79.78;99109.92;182102;1237;57968;-82
2024/03/10 10:26:09;;;;;;;23.40;14.00;;;;;;;11.75;79.40;99104.46;183281;1238;44536;-81
2024/03/10 10:30:23;;;;;;;17.50;13.70;;;;;;;11.72;78.68;99099.27;182983;1237;45965;-82
2024/03/10 10:34:26;;;;;;;16.70;13.10;;;;;;;11.75;79.22;99095.64;182492;1237;46016;-81
2024/03/10 10:38:27;;;;;;;17.10;12.50;;;;;;;11.75;78.72;99095.58;183810;1238;46151;-82
2024/03/10 10:42:30;;;;;;;18.50;13.50;;;;;;;11.82;78.29;99088.98;183542;1237;59609;-82
2024/03/10 10:46:38;;;;;;;20.40;14.60;;;;;;;11.97;78.62;99087.24;184349;1236;45978;-81
2024/03/10 10:50:43;;;;;;;20.70;14.20;;;;;;;12.15;79.23;99082.71;183349;1240;44081;-81
2024/03/10 10:54:46;;;;;;;19.00;13.10;;;;;;;12.38;79.92;99075.79;182099;1240;45991;-81
2024/03/10 10:58:50;;;;;;;19.00;12.00;;;;;;;12.64;78.57;99061.75;182513;1238;46075;-81
2024/03/10 11:03:24;;;;;;;16.00;11.20;;;;;;;12.86;77.63;99060.81;183347;1239;59339;-81
2024/03/10 11:07:27;;;;;;;16.90;11.90;;;;;;;12.96;75.51;99059.55;182365;1238;46206;-81
2024/03/10 11:11:44;;;;;;;17.20;14.00;;;;;;;12.94;74.90;99060.21;183192;1237;46011;-82
2024/03/10 11:15:46;;;;;;;37.50;26.30;;;;;;;12.91;76.04;99064.30;183229;1237;45984;-81
2024/03/10 11:19:50;;;;;;;50.20;31.60;;;;;;;12.95;76.49;99065.25;182394;1240;45995;-83
2024/03/10 11:23:52;;;;;;;28.20;23.20;;;;;;;12.98;76.07;99064.75;183192;1238;60046;-82
2024/03/10 11:27:55;;;;;;;42.00;33.50;;;;;;;13.00;76.61;99065.48;182570;1238;190067;-82
2024/03/10 11:31:57;;;;;;;49.20;35.40;;;;;;;13.00;77.49;99064.61;182598;1238;46180;-82
2024/03/10 11:36:00;;;;;;;28.40;19.90;;;;;;;12.95;77.31;99053.34;183673;1237;46116;-82
2024/03/10 11:40:04;;;;;;;28.20;19.30;;;;;;;12.91;75.72;99047.85;183194;1238;45992;-80
2024/03/10 11:44:06;;;;;;;23.80;16.40;;;;;;;12.88;75.95;99046.36;182968;1238;58091;-82
2024/03/10 11:48:08;;;;;;;19.00;14.00;;;;;;;12.91;76.30;99044.05;182651;1240;46186;-81
2024/03/10 11:52:14;;;;;;;16.70;13.90;;;;;;;12.89;75.45;99036.82;181957;1240;46082;-82
2024/03/10 11:56:17;;;;;;;17.80;13.30;;;;;;;12.90;75.53;99037.57;183011;1238;46550;-82
2024/03/10 12:00:21;;;;;;;16.70;12.60;;;;;;;12.94;76.08;99033.60;182957;1237;45992;-81
2024/03/10 12:04:27;;;;;;;19.10;13.20;;;;;;;13.02;77.14;99029.70;183566;1239;57920;-82
2024/03/10 12:08:38;;;;;;;18.20;13.30;;;;;;;13.04;76.93;99028.23;184680;1237;44575;-82
2024/03/10 12:12:59;;;;;;;16.10;13.00;;;;;;;12.99;76.32;99017.20;184554;1236;44679;-82
2024/03/10 12:17:13;;;;;;;17.70;14.40;;;;;;;12.97;76.77;99012.89;184328;1236;43862;-83
2024/03/10 12:21:27;;;;;;;18.30;12.60;;;;;;;12.98;76.51;99001.81;184669;1240;44699;-83
2024/03/10 12:25:33;;;;;;;21.90;12.90;;;;;;;13.01;77.32;98999.30;184653;1238;58609;-83
2024/03/10 12:29:45;;;;;;;20.50;14.30;;;;;;;13.12;76.87;98989.61;184471;1238;46052;-83
2024/03/10 12:33:50;;;;;;;17.90;12.50;;;;;;;13.16;76.21;98990.75;184904;1237;43751;-83
2024/03/10 12:37:55;;;;;;;22.00;12.70;;;;;;;13.20;76.46;98999.32;183984;1238;45967;-78
2024/03/10 12:41:59;;;;;;;21.60;15.70;;;;;;;13.22;76.45;98990.00;184189;1238;44235;-81
2024/03/10 12:46:09;;;;;;;19.10;14.20;;;;;;;13.26;76.02;98981.70;184670;1238;59251;-81
2024/03/10 12:50:16;;;;;;;20.90;15.90;;;;;;;13.27;75.26;98982.23;185048;1236;45887;-80
2024/03/10 12:54:18;;;;;;;20.00;14.50;;;;;;;13.24;75.46;98974.29;185314;1238;43917;-79
2024/03/10 12:58:23;;;;;;;19.30;14.10;;;;;;;13.23;75.10;98969.42;185390;1236;45005;-80
2024/03/10 13:02:35;;;;;;;20.80;12.00;;;;;;;13.23;75.37;98968.20;185222;1236;43385;-83
2024/03/10 13:06:40;;;;;;;19.70;14.50;;;;;;;13.27;75.23;98961.52;184986;1238;58440;-81
2024/03/10 13:10:43;;;;;;;17.90;13.20;;;;;;;13.32;74.55;98952.65;185072;1236;44421;-81
2024/03/10 13:14:46;;;;;;;17.70;13.90;;;;;;;13.36;74.73;98943.38;185115;1237;43494;-85
2024/03/10 13:18:48;;;;;;;14.50;12.70;;;;;;;13.43;76.25;98947.43;185057;1236;43623;-83
2024/03/10 13:22:51;;;;;;;20.90;14.20;;;;;;;13.43;76.43;98938.02;185158;1238;46006;-80
2024/03/10 13:26:54;;;;;;;17.90;13.20;;;;;;;13.39;76.89;98941.33;185076;1238;59408;-80
2024/03/10 13:30:57;;;;;;;20.30;12.90;;;;;;;13.38;77.40;98937.70;185158;1236;46139;-81
2024/03/10 13:35:01;;;;;;;20.10;13.10;;;;;;;13.40;77.57;98938.39;185264;1236;43680;-82
2024/03/10 13:39:05;;;;;;;16.80;12.40;;;;;;;13.39;78.71;98936.16;185137;1238;43660;-86
2024/03/10 13:43:10;;;;;;;17.30;13.50;;;;;;;13.35;79.24;98935.88;185181;1236;43429;-83
2024/03/10 13:47:12;;;;;;;15.70;11.90;;;;;;;13.37;79.79;98931.80;185112;1236;58150;-84
2024/03/10 13:51:14;;;;;;;15.50;10.80;;;;;;;13.35;80.23;98927.30;182573;1239;46118;-86
2024/03/10 13:55:16;;;;;;;14.90;10.30;;;;;;;13.42;81.03;98926.89;183619;1237;44107;-85
2024/03/10 13:59:18;;;;;;;15.50;11.50;;;;;;;13.48;81.77;98930.11;182336;1237;45928;-87
2024/03/10 14:03:20;;;;;;;13.30;9.60;;;;;;;13.54;82.16;98921.45;182597;1237;44123;-86
2024/03/10 14:07:22;;;;;;;10.50;9.30;;;;;;;13.65;81.84;98920.56;181836;1238;59873;-87
2024/03/10 14:11:23;;;;;;;15.30;9.50;;;;;;;13.71;81.45;98911.09;183086;1238;46127;-86
2024/03/10 14:15:31;;;;;;;13.70;9.90;;;;;;;13.75;81.55;98906.95;182801;1237;46032;-85
2024/03/10 14:19:33;;;;;;;10.40;8.20;;;;;;;13.77;82.15;98903.44;182917;1238;46157;-86
2024/03/10 14:23:36;;;;;;;12.00;9.20;;;;;;;13.79;81.30;98899.34;181736;1238;46166;-84
2024/03/10 14:27:49;;;;;;;12.00;9.30;;;;;;;13.82;81.20;98901.78;182363;1238;58114;-86
2024/03/10 14:31:51;;;;;;;15.30;9.00;;;;;;;13.86;80.95;98897.77;182852;1236;46211;-85
2024/03/10 14:35:52;;;;;;;16.10;11.70;;;;;;;13.90;81.12;98894.87;182724;1237;46180;-84
2024/03/10 14:39:54;;;;;;;14.10;9.60;;;;;;;13.88;81.84;98896.11;182271;1238;45990;-87
2024/03/10 14:43:57;;;;;;;13.40;9.50;;;;;;;13.87;82.17;98892.85;181913;1236;45982;-84
2024/03/10 14:47:58;;;;;;;17.00;12.30;;;;;;;13.82;82.70;98888.21;182415;1237;58568;-87
2024/03/10 14:52:00;;;;;;;14.70;10.40;;;;;;;13.78;82.80;98885.02;181896;1236;46084;-86
2024/03/10 14:56:02;;;;;;;17.30;10.30;;;;;;;13.78;83.13;98888.36;182483;1238;46041;-85
2024/03/10 15:00:05;;;;;;;12.80;9.50;;;;;;;13.77;84.26;98879.42;182270;1238;46140;-87
2024/03/10 15:04:07;;;;;;;13.80;10.50;;;;;;;13.70;84.18;98877.16;181985;1238;46133;-86
2024/03/10 15:08:11;;;;;;;16.40;11.30;;;;;;;13.65;83.67;98869.55;182757;1237;59155;-88
2024/03/10 15:12:13;;;;;;;21.20;11.80;;;;;;;13.60;82.37;98867.38;181967;1237;45942;-85
2024/03/10 15:16:16;;;;;;;15.10;10.90;;;;;;;13.61;81.74;98856.34;183161;1238;46251;-86
2024/03/10 15:20:19;;;;;;;13.50;10.60;;;;;;;13.60;81.16;98833.64;182214;1237;46060;-87
2024/03/10 15:24:21;;;;;;;15.10;10.30;;;;;;;13.61;81.99;98829.37;182715;1238;44286;-84
2024/03/10 15:28:23;;;;;;;13.70;9.90;;;;;;;13.61;82.15;98832.86;182929;1238;58412;-86
2024/03/10 15:32:25;;;;;;;20.40;12.20;;;;;;;13.62;82.97;98829.87;182718;1236;45853;-86
2024/03/10 15:36:27;;;;;;;14.50;11.90;;;;;;;13.61;83.18;98826.54;182256;1239;46048;-82
2024/03/10 15:40:30;;;;;;;19.40;13.80;;;;;;;13.56;83.07;98826.66;182121;1240;45927;-83
2024/03/10 15:44:32;;;;;;;23.30;16.10;;;;;;;13.41;81.44;98836.59;182013;1236;46134;-86
2024/03/10 15:48:34;;;;;;;22.80;16.30;;;;;;;13.23;81.18;98840.10;182141;1237;59426;-86
2024/03/10 15:52:36;;;;;;;22.10;16.30;;;;;;;13.11;81.63;98843.19;181804;1241;46034;-84
2024/03/10 15:56:38;;;;;;;24.70;17.10;;;;;;;13.02;82.57;98838.38;183587;1236;45893;-83
2024/03/10 16:00:41;;;;;;;22.00;16.10;;;;;;;12.90;82.87;98847.55;182610;1242;45982;-87
2024/03/10 16:04:43;;;;;;;22.00;15.40;;;;;;;12.83;83.22;98859.02;182301;1238;46166;-88
2024/03/10 16:08:47;;;;;;;22.30;15.00;;;;;;;12.76;83.36;98857.17;182973;1238;58022;-87
2024/03/10 16:12:50;;;;;;;22.20;15.70;;;;;;;12.73;83.82;98857.20;182752;1236;46096;-84
2024/03/10 16:16:52;;;;;;;21.10;15.50;;;;;;;12.67;84.37;98857.91;182949;1236;44461;-84
2024/03/10 16:20:55;;;;;;;23.20;15.90;;;;;;;12.62;84.46;98859.63;182090;1236;46028;-83
2024/03/10 16:25:00;;;;;;;19.00;14.30;;;;;;;12.58;84.56;98861.48;182126;1240;45859;-86
2024/03/10 16:29:10;;;;;;;20.40;13.90;;;;;;;12.53;85.05;98856.56;182123;1237;57921;-84
2024/03/10 16:33:15;;;;;;;22.20;17.10;;;;;;;12.48;84.95;98847.73;182518;1239;46091;-83
2024/03/10 16:37:33;;;;;;;21.80;16.60;;;;;;;12.48;85.48;98855.55;182537;1237;46125;-85
2024/03/10 16:41:53;;;;;;;25.90;16.80;;;;;;;12.44;86.01;98858.06;182296;1237;46106;-85
2024/03/10 16:46:13;;;;;;;22.40;15.40;;;;;;;12.41;86.22;98859.69;181788;1236;46207;-85
2024/03/10 16:50:26;;;;;;;;;;;;;;;12.39;86.41;98858.92;182284;1236;58499;-84
2024/03/10 16:54:36;;;;;;;24.30;15.90;;;;;;;12.36;87.40;98855.71;182353;1236;45840;-86
2024/03/10 16:58:45;;;;;;;21.70;15.30;;;;;;;12.35;88.23;98857.29;182841;1236;46032;-84
2024/03/10 17:02:47;;;;;;;25.50;18.40;;;;;;;12.29;88.54;98860.46;182541;1237;45953;-83
2024/03/10 17:06:50;;;;;;;21.20;16.80;;;;;;;12.26;89.06;98860.09;182426;1236;45978;-83
2024/03/10 17:10:54;;;;;;;21.50;15.70;;;;;;;12.20;88.71;98862.92;183281;1236;59529;-83
2024/03/10 17:14:56;;;;;;;20.10;14.80;;;;;;;12.18;88.65;98867.59;182482;1237;46086;-83
2024/03/10 17:18:58;;;;;;;22.20;16.30;;;;;;;12.17;89.12;98868.69;183244;1240;46114;-84
2024/03/10 17:23:01;;;;;;;23.20;16.90;;;;;;;12.15;90.08;98869.05;182646;1236;46022;-84
2024/03/10 17:27:03;;;;;;;27.80;17.20;;;;;;;12.10;90.67;98861.58;182601;1236;45970;-84
2024/03/10 17:31:06;;;;;;;22.40;15.20;;;;;;;12.10;92.06;98865.38;183162;1238;59248;-84
2024/03/10 17:35:08;;;;;;;23.30;16.10;;;;;;;12.10;93.66;98863.61;183223;1237;46109;-84
2024/03/10 17:39:10;;;;;;;20.80;14.70;;;;;;;12.11;94.11;98863.14;183302;1239;46201;-82
2024/03/10 17:43:12;;;;;;;21.70;16.30;;;;;;;12.13;94.14;98859.73;182648;1236;46422;-82
2024/03/10 17:47:14;;;;;;;23.50;17.10;;;;;;;12.15;94.60;98858.45;182393;1236;45984;-82
2024/03/10 17:51:16;;;;;;;21.10;15.50;;;;;;;12.14;94.84;98849.27;182323;1236;59765;-82
2024/03/10 17:55:19;;;;;;;25.20;15.30;;;;;;;12.09;95.14;98850.42;182746;1236;46095;-82
2024/03/10 17:59:21;;;;;;;22.80;15.30;;;;;;;12.08;95.45;98853.73;181901;1240;45963;-82
2024/03/10 18:03:23;;;;;;;19.80;16.10;;;;;;;12.03;95.64;98847.34;182690;1241;46172;-82
2024/03/10 18:07:31;;;;;;;19.80;15.40;;;;;;;12.04;95.70;98843.84;182561;1240;46054;-83
2024/03/10 18:11:44;;;;;;;23.10;16.60;;;;;;;12.06;95.63;98842.89;182601;1239;59313;-83
2024/03/10 18:15:50;;;;;;;24.20;15.50;;;;;;;12.06;95.98;98841.48;183313;1240;46101;-84
2024/03/10 18:19:56;;;;;;;23.10;16.90;;;;;;;12.05;96.78;98834.67;182846;1236;46077;-84
2024/03/10 18:23:59;;;;;;;;;;;;;;;12.04;97.48;98834.64;183201;1236;45804;-85
2024/03/10 18:28:03;;;;;;;20.80;15.50;;;;;;;12.04;97.51;98837.27;182229;1237;45760;-86
2024/03/10 18:32:07;;;;;;;28.70;18.10;;;;;;;12.02;97.98;98833.41;182239;1236;57635;-85
2024/03/10 18:36:15;;;;;;;23.10;17.50;;;;;;;12.04;97.91;98836.38;182004;1236;46032;-87
2024/03/10 18:40:28;;;;;;;20.90;14.60;;;;;;;12.04;98.37;98836.40;181867;1236;46076;-88
2024/03/10 18:44:30;;;;;;;19.40;14.60;;;;;;;12.01;98.22;98838.11;182747;1236;44032;-83
2024/03/10 18:48:33;;;;;;;26.80;15.50;;;;;;;12.03;98.01;98836.48;182534;1238;46074;-83
2024/03/10 18:52:36;;;;;;;18.80;15.30;;;;;;;12.01;97.91;98839.35;182178;1236;58876;-83